Time;durP1;ratioP1;P1;durP2;ratioP2;P2;SDS_P1;SDS_P2;PMS_P1;PMS_P2;Temp;Humidity;BMP_temperature;BMP_pressure;BME280_temperature;BME280_humidity;BME280_pressure;Samples;Min_cycle;Max_cycle;Signal;HPM_P1;HPM_P2
2023/11/18 00:01:42;;;;;;;41.58;23.40;;;;;;;6.88;73.31;100608.97;5003095;28;20082;-78
2023/11/18 00:04:15;;;;;;;41.50;23.02;;;;;;;6.86;73.25;100610.78;5003468;28;20062;-77
2023/11/18 00:06:45;;;;;;;38.95;22.60;;;;;;;6.84;73.12;100615.19;5011382;28;20046;-76
2023/11/18 00:09:13;;;;;;;40.80;23.45;;;;;;;6.81;73.09;100614.44;5011113;28;20100;-77
2023/11/18 00:11:40;;;;;;;43.75;23.70;;;;;;;6.79;73.35;100611.84;5008499;28;20057;-76
2023/11/18 00:14:07;;;;;;;48.80;24.25;;;;;;;6.75;73.32;100618.06;4985514;28;20125;-78
2023/11/18 00:16:34;;;;;;;41.63;23.42;;;;;;;6.72;73.32;100618.16;5009832;28;20108;-76
2023/11/18 00:19:01;;;;;;;47.17;25.10;;;;;;;6.70;73.46;100617.34;5011006;28;20046;-76
2023/11/18 00:21:28;;;;;;;42.00;23.65;;;;;;;6.67;73.62;100620.03;5011124;28;20128;-78
2023/11/18 00:23:55;;;;;;;47.08;24.05;;;;;;;6.63;73.65;100611.41;4993517;28;20100;-76
2023/11/18 00:26:22;;;;;;;46.35;24.77;;;;;;;6.60;73.51;100609.75;5011050;28;20065;-77
2023/11/18 00:28:49;;;;;;;44.70;22.63;;;;;;;6.57;73.90;100617.66;5011078;28;20097;-76
2023/11/18 00:31:16;;;;;;;43.80;24.75;;;;;;;6.55;74.10;100618.59;5011250;28;20049;-76
2023/11/18 00:33:43;;;;;;;45.97;24.20;;;;;;;6.52;73.80;100614.31;5010789;28;20078;-76
2023/11/18 00:36:09;;;;;;;43.55;22.45;;;;;;;6.50;73.84;100611.75;5011109;28;20395;-75
2023/11/18 00:38:36;;;;;;;41.90;23.23;;;;;;;6.48;74.08;100616.16;4993313;28;20046;-75
2023/11/18 00:41:03;;;;;;;42.58;22.70;;;;;;;6.46;74.04;100611.84;4993520;28;20139;-76
2023/11/18 00:43:29;;;;;;;47.03;23.77;;;;;;;6.45;73.88;100612.75;4991134;28;20401;-77
2023/11/18 00:45:57;;;;;;;42.20;22.88;;;;;;;6.43;74.00;100604.09;5010783;28;20042;-76
2023/11/18 00:48:24;;;;;;;42.08;23.45;;;;;;;6.42;73.99;100607.63;5011142;28;20049;-76
2023/11/18 00:50:51;;;;;;;40.05;21.83;;;;;;;6.38;73.62;100612.06;5010980;28;20038;-76
2023/11/18 00:53:18;;;;;;;44.17;23.13;;;;;;;6.35;73.98;100613.00;5010567;28;20045;-75
2023/11/18 00:55:45;;;;;;;42.63;22.23;;;;;;;6.32;73.72;100615.69;5010647;28;20490;-76
2023/11/18 00:58:12;;;;;;;38.67;21.90;;;;;;;6.29;73.59;100613.16;5010745;28;20050;-77
2023/11/18 01:00:38;;;;;;;40.85;22.77;;;;;;;6.25;73.97;100611.53;5012155;28;20387;-76
2023/11/18 01:03:05;;;;;;;45.17;23.08;;;;;;;6.22;74.16;100608.97;5014464;28;20124;-77
2023/11/18 01:05:32;;;;;;;44.28;23.38;;;;;;;6.20;74.38;100600.31;5014293;28;20050;-74
2023/11/18 01:07:58;;;;;;;43.90;22.83;;;;;;;6.18;74.40;100607.34;5014376;28;20560;-76
2023/11/18 01:10:25;;;;;;;44.45;21.08;;;;;;;6.16;74.61;100614.38;5014204;28;20494;-77
2023/11/18 01:12:54;;;;;;;46.80;22.25;;;;;;;6.13;74.33;100618.75;5014208;28;20042;-75
2023/11/18 01:15:23;;;;;;;47.50;21.10;;;;;;;6.12;74.27;100614.44;5014077;28;20494;-79
2023/11/18 01:17:49;;;;;;;41.47;21.42;;;;;;;6.10;74.19;100615.38;5014270;28;20056;-76
2023/11/18 01:20:21;;;;;;;43.88;22.55;;;;;;;6.06;74.01;100619.78;5014404;28;20141;-76
2023/11/18 01:22:48;;;;;;;47.60;22.70;;;;;;;6.05;74.12;100619.88;4996133;28;20060;-75
2023/11/18 01:25:17;;;;;;;56.92;20.33;;;;;;;6.00;74.32;100626.03;5014094;28;20111;-78
2023/11/18 01:27:47;;;;;;;61.67;19.52;;;;;;;5.97;73.57;100630.44;5013831;28;20054;-77
2023/11/18 01:30:14;;;;;;;63.40;17.02;;;;;;;5.92;73.45;100630.56;5014220;28;20502;-77
2023/11/18 01:32:41;;;;;;;51.28;16.75;;;;;;;5.87;73.34;100632.44;5013575;28;20136;-77
2023/11/18 01:35:10;;;;;;;56.95;16.92;;;;;;;5.81;73.26;100635.19;5014074;28;20064;-76
2023/11/18 01:37:38;;;;;;;52.85;15.88;;;;;;;5.74;73.13;100629.22;5014001;28;20050;-76
2023/11/18 01:40:07;;;;;;;26.63;14.10;;;;;;;5.66;73.13;100629.41;5009805;28;20058;-76
2023/11/18 01:42:34;;;;;;;29.50;15.02;;;;;;;5.61;73.19;100626.06;5011098;28;20054;-75
2023/11/18 01:45:03;;;;;;;33.38;16.50;;;;;;;5.55;73.42;100623.56;4996549;28;20050;-76
2023/11/18 01:47:33;;;;;;;46.33;16.92;;;;;;;5.48;73.45;100628.94;5013673;28;20061;-75
2023/11/18 01:50:01;;;;;;;38.72;16.73;;;;;;;5.45;73.57;100630.72;5013878;28;20466;-76
2023/11/18 01:52:30;;;;;;;47.55;15.77;;;;;;;5.39;73.50;100633.47;4997235;28;20146;-77
2023/11/18 01:54:58;;;;;;;63.17;17.25;;;;;;;5.35;73.46;100630.09;5006023;28;20138;-75
2023/11/18 01:57:26;;;;;;;54.28;16.27;;;;;;;5.30;73.64;100632.78;5013959;28;20052;-74
2023/11/18 01:59:54;;;;;;;70.95;16.05;;;;;;;5.26;73.46;100638.09;5013701;28;20085;-76
2023/11/18 02:02:23;;;;;;;62.50;15.63;;;;;;;5.20;73.43;100636.50;4995612;28;20442;-76
2023/11/18 02:04:50;;;;;;;28.35;13.50;;;;;;;5.14;73.22;100618.31;4995799;28;20051;-75
2023/11/18 02:07:17;;;;;;;68.93;15.25;;;;;;;5.07;73.48;100621.06;4995828;28;20512;-75
2023/11/18 02:09:45;;;;;;;53.70;13.95;;;;;;;5.01;73.40;100618.56;5013211;28;20487;-76
2023/11/18 02:12:36;;;;;;;105.05;17.45;;;;;;;4.92;73.08;100618.75;4991598;28;20058;-76
2023/11/18 02:15:09;;;;;;;127.68;16.55;;;;;;;4.89;73.30;100618.81;5006761;28;20054;-77
2023/11/18 02:17:42;;;;;;;99.43;16.20;;;;;;;4.81;73.40;100614.63;5005331;28;20108;-77
2023/11/18 02:20:15;;;;;;;92.10;13.80;;;;;;;4.78;73.64;100614.66;5012323;28;20419;-76
2023/11/18 02:22:44;;;;;;;56.45;15.23;;;;;;;4.73;74.05;100615.63;5013221;28;20137;-76
2023/11/18 02:25:16;;;;;;;97.85;17.30;;;;;;;4.67;74.21;100603.56;5013205;28;20050;-75
2023/11/18 02:27:42;;;;;;;53.88;15.48;;;;;;;4.66;74.45;100604.47;5176106;23;20045;-75
2023/11/18 02:30:12;;;;;;;87.95;16.85;;;;;;;4.63;74.62;100607.97;5053144;28;20520;-78
2023/11/18 02:32:47;;;;;;;84.88;15.70;;;;;;;4.62;74.75;100613.22;5052237;28;20659;-76
2023/11/18 02:35:28;;;;;;;84.68;17.17;;;;;;;4.60;74.52;100620.22;5052828;28;20063;-76
2023/11/18 02:37:55;;;;;;;126.60;17.58;;;;;;;4.62;74.93;100613.22;5052497;28;20132;-77
2023/11/18 02:40:43;;;;;;;136.38;18.38;;;;;;;4.59;74.62;100621.13;5052460;28;20052;-75
2023/11/18 02:43:11;;;;;;;108.57;16.10;;;;;;;4.62;75.02;100619.31;5052392;28;20134;-79
2023/11/18 02:45:38;;;;;;;46.60;14.65;;;;;;;4.62;75.45;100621.03;5052428;28;20041;-75
2023/11/18 02:48:06;;;;;;;89.13;16.90;;;;;;;4.62;75.29;100621.03;5052485;28;20107;-77
2023/11/18 02:50:35;;;;;;;131.32;18.63;;;;;;;4.63;75.18;100621.03;5052456;28;20048;-75
2023/11/18 02:53:02;;;;;;;165.45;18.85;;;;;;;4.66;75.36;100622.72;5044512;28;20110;-76
2023/11/18 02:55:29;;;;;;;167.35;18.05;;;;;;;4.67;75.57;100616.59;5044871;28;20068;-76
2023/11/18 02:57:56;;;;;;;152.32;18.83;;;;;;;4.67;75.23;100608.78;5034663;28;20052;-77
2023/11/18 03:00:23;;;;;;;98.93;17.58;;;;;;;4.67;75.09;100606.16;5160433;23;20053;-75
2023/11/18 03:02:51;;;;;;;168.88;19.30;;;;;;;4.66;74.94;100604.47;5032291;28;20140;-75
2023/11/18 03:05:19;;;;;;;93.88;16.35;;;;;;;4.65;74.93;100600.13;5015201;28;20409;-74
2023/11/18 03:07:53;;;;;;;207.63;20.08;;;;;;;4.64;75.10;100601.03;5024321;28;20418;-75
2023/11/18 03:10:21;;;;;;;102.20;16.38;;;;;;;4.62;75.25;100593.22;5032192;28;20053;-76
2023/11/18 03:12:49;;;;;;;167.15;18.77;;;;;;;4.61;75.32;100588.03;5031879;28;20131;-75
2023/11/18 03:15:16;;;;;;;241.48;23.02;;;;;;;4.61;75.96;100585.44;5032139;28;20073;-75
2023/11/18 03:17:48;;;;;;;152.20;18.05;;;;;;;4.62;75.77;100585.41;5027362;23;20552;-76
2023/11/18 03:20:19;;;;;;;96.88;16.02;;;;;;;4.65;75.68;100587.97;5033003;28;20449;-75
2023/11/18 03:22:47;;;;;;;141.35;16.88;;;;;;;4.69;76.23;100584.41;5024133;28;20045;-75
2023/11/18 03:25:14;;;;;;;56.45;14.63;;;;;;;4.74;76.51;100586.91;5013694;28;20045;-76
2023/11/18 03:27:40;;;;;;;80.25;17.33;;;;;;;4.80;76.31;100579.00;5031451;28;20049;-75
2023/11/18 03:30:08;;;;;;;161.98;20.80;;;;;;;4.87;76.46;100576.25;5031856;28;20062;-77
2023/11/18 03:32:36;;;;;;;101.22;18.23;;;;;;;4.91;76.46;100567.47;5031409;28;20059;-76
2023/11/18 03:35:04;;;;;;;120.53;17.05;;;;;;;4.97;76.57;100582.16;5031306;28;20453;-76
2023/11/18 03:37:31;;;;;;;139.43;18.27;;;;;;;5.01;76.27;100579.44;5031615;28;20545;-75
2023/11/18 03:39:58;;;;;;;189.30;19.30;;;;;;;5.04;75.74;100574.16;5031621;28;20498;-76
2023/11/18 03:42:24;;;;;;;204.00;19.92;;;;;;;5.06;75.38;100569.78;5013692;28;20452;-76
2023/11/18 03:44:51;;;;;;;235.32;20.70;;;;;;;5.06;75.28;100572.38;5031188;28;20081;-75
2023/11/18 03:47:17;;;;;;;190.45;18.90;;;;;;;5.06;75.21;100577.59;5031157;28;20084;-76
2023/11/18 03:49:44;;;;;;;166.73;18.90;;;;;;;5.06;75.25;100580.22;5031598;28;20061;-76
2023/11/18 03:52:11;;;;;;;161.65;19.98;;;;;;;5.04;75.12;100579.38;5031256;28;20053;-76
2023/11/18 03:54:38;;;;;;;178.60;21.75;;;;;;;5.03;75.35;100575.06;5031327;28;20832;-75
2023/11/18 03:57:05;;;;;;;123.00;19.73;;;;;;;5.02;75.43;100591.59;5031013;28;20084;-78
2023/11/18 03:59:31;;;;;;;124.70;19.75;;;;;;;5.01;75.19;100589.88;5031072;28;20107;-74
2023/11/18 04:01:58;;;;;;;54.38;18.45;;;;;;;4.99;75.06;100578.59;5030756;28;20057;-76
2023/11/18 04:04:25;;;;;;;74.18;17.42;;;;;;;4.98;75.06;100582.13;5031709;28;20061;-76
2023/11/18 04:06:51;;;;;;;131.32;21.15;;;;;;;4.96;74.91;100586.50;5031064;28;20485;-77
2023/11/18 04:09:18;;;;;;;78.85;18.35;;;;;;;4.94;75.08;100576.09;5013420;28;20119;-76
2023/11/18 04:11:45;;;;;;;100.63;20.40;;;;;;;4.92;75.14;100569.19;5030681;28;20107;-76
2023/11/18 04:14:12;;;;;;;43.10;17.23;;;;;;;4.90;75.54;100561.38;5030786;28;20045;-76
2023/11/18 04:16:38;;;;;;;109.60;20.35;;;;;;;4.89;75.49;100567.50;5030919;28;20091;-75
2023/11/18 04:19:09;;;;;;;82.43;18.45;;;;;;;4.88;75.29;100570.13;5032297;28;20485;-76
2023/11/18 04:21:38;;;;;;;84.13;18.48;;;;;;;4.88;75.52;100575.34;5030789;28;20064;-76
2023/11/18 04:24:05;;;;;;;93.63;18.10;;;;;;;4.87;75.57;100574.50;5031278;28;20100;-77
2023/11/18 04:26:32;;;;;;;104.32;20.15;;;;;;;4.87;75.56;100581.47;5030800;28;20049;-76
2023/11/18 04:28:58;;;;;;;38.28;18.67;;;;;;;4.87;75.94;100560.59;5030644;28;20092;-75
2023/11/18 04:31:25;;;;;;;54.17;19.55;;;;;;;4.89;75.91;100564.00;5030812;28;20065;-76
2023/11/18 04:33:55;;;;;;;99.10;20.50;;;;;;;4.89;76.08;100570.09;5030646;28;20068;-76
2023/11/18 04:36:22;;;;;;;76.80;20.05;;;;;;;4.90;75.85;100565.75;5030408;28;20133;-77
2023/11/18 04:38:48;;;;;;;110.10;20.88;;;;;;;4.91;75.83;100557.03;5013012;28;20049;-76
2023/11/18 04:41:15;;;;;;;98.47;21.17;;;;;;;4.91;76.00;100557.91;5030592;28;20087;-75
2023/11/18 04:43:42;;;;;;;113.88;22.42;;;;;;;4.93;75.96;100555.22;5030282;28;20060;-76
2023/11/18 04:46:11;;;;;;;153.30;22.75;;;;;;;4.93;76.34;100556.09;5030779;28;20128;-77
2023/11/18 04:48:39;;;;;;;52.28;18.30;;;;;;;4.97;76.33;100543.00;5030480;28;20064;-77
2023/11/18 04:51:08;;;;;;;64.10;17.33;;;;;;;4.99;76.42;100536.88;5013392;28;20391;-78
2023/11/18 04:53:34;;;;;;;83.05;20.42;;;;;;;5.03;76.35;100530.69;5030403;28;20115;-76
2023/11/18 04:56:02;;;;;;;33.92;18.23;;;;;;;5.06;76.45;100535.84;5030407;28;20077;-75
2023/11/18 04:58:29;;;;;;;32.53;19.55;;;;;;;5.10;76.22;100528.81;5030599;28;20131;-76
2023/11/18 05:00:55;;;;;;;55.83;20.45;;;;;;;5.12;76.19;100516.56;5012952;28;20104;-76
2023/11/18 05:03:24;;;;;;;35.15;18.75;;;;;;;5.14;75.84;100517.41;5012725;28;20041;-77
2023/11/18 05:05:50;;;;;;;34.35;19.38;;;;;;;5.15;75.91;100518.25;5030325;28;20049;-75
2023/11/18 05:08:22;;;;;;;40.47;20.25;;;;;;;5.15;75.42;100523.47;5030472;28;20049;-76
2023/11/18 05:10:50;;;;;;;35.53;20.08;;;;;;;5.15;75.72;100523.47;5030229;28;20045;-77
2023/11/18 05:13:18;;;;;;;41.15;20.38;;;;;;;5.14;75.37;100524.38;5030327;28;20052;-75
2023/11/18 05:15:46;;;;;;;34.78;20.05;;;;;;;5.13;75.23;100517.44;5030310;28;20061;-76
2023/11/18 05:18:16;;;;;;;37.20;20.08;;;;;;;5.13;75.46;100514.81;5022677;28;20157;-76
2023/11/18 05:20:44;;;;;;;35.55;19.63;;;;;;;5.11;75.49;100508.75;5030380;28;20052;-75
2023/11/18 05:23:11;;;;;;;38.88;21.05;;;;;;;5.09;75.12;100509.66;5029810;28;20044;-75
2023/11/18 05:25:46;;;;;;;41.83;22.08;;;;;;;5.07;74.99;100505.38;5030481;28;20115;-76
2023/11/18 05:28:13;;;;;;;35.83;18.88;;;;;;;5.06;75.50;100499.31;5005171;28;20045;-76
2023/11/18 05:30:43;;;;;;;33.60;19.13;;;;;;;5.05;75.47;100497.56;5030317;28;20512;-77
2023/11/18 05:33:14;;;;;;;38.10;20.33;;;;;;;5.05;75.54;100500.19;5022199;28;20737;-76
2023/11/18 05:35:48;;;;;;;35.70;19.52;;;;;;;5.07;75.55;100510.59;5030171;28;20084;-76
2023/11/18 05:38:21;;;;;;;37.50;19.30;;;;;;;5.06;75.41;100501.06;5022690;28;20140;-77
2023/11/18 05:40:59;;;;;;;38.42;19.80;;;;;;;5.07;75.69;100493.19;5030062;28;20046;-76
2023/11/18 05:43:29;;;;;;;31.77;18.33;;;;;;;5.08;75.43;100500.13;5023351;28;20050;-78
2023/11/18 05:46:20;;;;;;;38.17;18.58;;;;;;;5.09;75.70;100509.66;5030045;28;20399;-77
2023/11/18 05:48:48;;;;;;;39.13;17.77;;;;;;;5.12;75.69;100513.97;5033426;28;20081;-78
2023/11/18 05:51:20;;;;;;;33.22;16.92;;;;;;;5.13;75.63;100507.88;5033660;28;20394;-75
2023/11/18 05:53:47;;;;;;;31.33;17.83;;;;;;;5.16;75.65;100502.56;5033291;28;20103;-77
2023/11/18 05:56:14;;;;;;;33.05;17.77;;;;;;;5.19;76.13;100499.88;5033372;28;20568;-75
2023/11/18 05:58:43;;;;;;;31.58;17.23;;;;;;;5.22;75.92;100493.72;5015553;28;20042;-77
2023/11/18 06:01:11;;;;;;;27.88;16.85;;;;;;;5.25;75.91;100493.69;5033536;28;20049;-75
2023/11/18 06:03:38;;;;;;;31.33;17.55;;;;;;;5.29;76.23;100490.09;5033117;28;20037;-76
2023/11/18 06:06:06;;;;;;;33.10;17.45;;;;;;;5.34;76.19;100490.84;5033179;28;20041;-75
2023/11/18 06:08:46;;;;;;;29.40;16.55;;;;;;;5.38;75.96;100488.16;5032762;28;20053;-77
2023/11/18 06:11:14;;;;;;;29.92;16.73;;;;;;;5.44;76.15;100485.41;5032961;28;20076;-76
2023/11/18 06:13:43;;;;;;;29.52;16.45;;;;;;;5.50;76.28;100480.06;5032911;28;20490;-76
2023/11/18 06:16:20;;;;;;;31.15;17.08;;;;;;;5.53;75.73;100487.78;5033161;28;20053;-76
2023/11/18 06:18:49;;;;;;;30.70;16.40;;;;;;;5.58;75.97;100501.59;5011867;28;20050;-77
2023/11/18 06:21:18;;;;;;;31.52;17.33;;;;;;;5.62;76.04;100505.00;5030018;28;20062;-77
2023/11/18 06:23:47;;;;;;;29.92;15.80;;;;;;;5.66;75.85;100498.81;5010576;28;20076;-76
2023/11/18 06:26:15;;;;;;;27.25;15.73;;;;;;;5.68;75.60;100490.94;5033018;28;20557;-77
2023/11/18 06:28:43;;;;;;;29.85;17.30;;;;;;;5.72;75.63;100489.97;5032698;28;20486;-75
2023/11/18 06:31:11;;;;;;;26.63;15.88;;;;;;;5.74;75.56;100496.00;5032751;28;20453;-77
2023/11/18 06:33:42;;;;;;;27.02;15.65;;;;;;;5.74;75.35;100494.25;5032428;28;20050;-77
2023/11/18 06:36:21;;;;;;;29.45;17.50;;;;;;;5.72;74.18;100493.41;5032680;28;20059;-76
2023/11/18 06:38:53;;;;;;;27.17;15.65;;;;;;;5.74;74.49;100491.66;5015061;28;20502;-76
2023/11/18 06:41:33;;;;;;;28.90;16.52;;;;;;;5.74;74.49;100489.03;5025137;28;20045;-77
2023/11/18 06:44:09;;;;;;;31.92;15.80;;;;;;;5.75;74.56;100492.47;5032705;28;20136;-77
2023/11/18 06:46:39;;;;;;;27.35;15.27;;;;;;;5.74;74.72;100494.25;5032394;28;20085;-76
2023/11/18 06:49:07;;;;;;;26.77;15.82;;;;;;;5.73;74.60;100487.28;5032190;28;20445;-76
2023/11/18 06:51:35;;;;;;;28.08;14.93;;;;;;;5.72;74.63;100480.34;5032226;28;20511;-79
2023/11/18 06:54:08;;;;;;;26.13;14.05;;;;;;;5.74;74.72;100475.09;5015184;28;20071;-78
2023/11/18 06:56:37;;;;;;;27.33;15.38;;;;;;;5.74;74.78;100486.41;5032174;28;20048;-77
2023/11/18 06:59:07;;;;;;;27.30;16.02;;;;;;;5.75;74.84;100492.47;5031787;28;20137;-75
2023/11/18 07:01:35;;;;;;;27.20;15.95;;;;;;;5.79;75.03;100494.13;5032206;28;20461;-79
2023/11/18 07:04:02;;;;;;;29.65;17.02;;;;;;;5.79;75.55;100481.06;5032236;28;20045;-75
2023/11/18 07:06:29;;;;;;;29.02;16.10;;;;;;;5.81;75.07;100476.66;5032323;28;20088;-74
2023/11/18 07:09:00;;;;;;;26.85;15.25;;;;;;;5.84;75.17;100475.72;5032383;28;20049;-74
2023/11/18 07:11:27;;;;;;;30.60;15.50;;;;;;;5.87;75.20;100479.13;5032021;28;20144;-75
2023/11/18 07:13:57;;;;;;;29.35;15.02;;;;;;;5.91;75.20;100481.66;5014167;28;20537;-74
2023/11/18 07:16:24;;;;;;;26.73;15.00;;;;;;;5.94;75.21;100489.44;5006527;28;20049;-74
2023/11/18 07:18:52;;;;;;;27.63;15.25;;;;;;;5.97;75.30;100492.81;5031802;28;20548;-75
2023/11/18 07:21:19;;;;;;;32.45;15.88;;;;;;;6.00;75.44;100491.88;5029114;28;20053;-74
2023/11/18 07:23:46;;;;;;;27.27;14.73;;;;;;;6.04;75.63;100492.66;5009095;28;20092;-73
2023/11/18 07:26:13;;;;;;;28.58;14.95;;;;;;;6.06;75.21;100481.28;5031504;28;20558;-75
2023/11/18 07:28:41;;;;;;;28.15;15.52;;;;;;;6.08;75.43;100489.94;5031894;28;20049;-76
2023/11/18 07:31:09;;;;;;;26.80;15.50;;;;;;;6.11;75.42;100487.25;5031686;28;20054;-76
2023/11/18 07:33:35;;;;;;;26.60;14.65;;;;;;;6.15;75.41;100493.25;5031359;28;20051;-74
2023/11/18 07:36:05;;;;;;;23.67;14.20;;;;;;;6.18;75.03;100494.91;5013942;28;20115;-76
2023/11/18 07:38:34;;;;;;;22.85;14.07;;;;;;;6.20;75.41;100493.13;5013915;28;20055;-76
2023/11/18 07:41:02;;;;;;;26.15;15.10;;;;;;;6.22;75.33;100494.81;5031285;28;20053;-75
2023/11/18 07:43:30;;;;;;;24.35;13.82;;;;;;;6.24;75.31;100498.22;5031045;28;20436;-74
2023/11/18 07:45:57;;;;;;;27.80;15.45;;;;;;;6.27;75.33;100484.22;5013874;28;20112;-76
2023/11/18 07:48:23;;;;;;;26.50;15.48;;;;;;;6.30;75.41;100485.88;5031095;28;20494;-74
2023/11/18 07:50:50;;;;;;;27.85;15.93;;;;;;;6.33;75.62;100481.44;5031292;28;20041;-74
2023/11/18 07:53:17;;;;;;;26.95;15.57;;;;;;;6.35;75.74;100471.78;5030687;28;20058;-73
2023/11/18 07:55:44;;;;;;;28.27;16.60;;;;;;;6.39;75.93;100468.19;5031419;28;20431;-77
2023/11/18 07:58:12;;;;;;;27.25;16.33;;;;;;;6.45;75.83;100475.00;5031134;28;20107;-74
2023/11/18 08:00:39;;;;;;;25.85;14.82;;;;;;;6.50;75.82;100470.50;5031317;28;20124;-75
2023/11/18 08:03:13;;;;;;;31.05;15.23;;;;;;;6.54;75.56;100473.88;5030724;28;20103;-76
2023/11/18 08:05:45;;;;;;;25.63;14.43;;;;;;;6.59;75.32;100466.78;5013548;28;20042;-73
2023/11/18 08:08:12;;;;;;;22.30;13.88;;;;;;;6.66;76.02;100470.06;5030985;28;20485;-74
2023/11/18 08:10:40;;;;;;;23.17;14.10;;;;;;;6.71;76.12;100473.41;5030372;28;20048;-75
2023/11/18 08:13:08;;;;;;;25.27;14.70;;;;;;;6.77;75.99;100488.06;5030954;28;20069;-74
2023/11/18 08:15:37;;;;;;;24.58;13.27;;;;;;;6.81;75.95;100487.06;5030963;28;20439;-76
2023/11/18 08:18:04;;;;;;;22.05;13.43;;;;;;;6.87;75.70;100488.63;5030582;28;20104;-75
2023/11/18 08:20:30;;;;;;;25.55;14.50;;;;;;;6.91;75.66;100492.88;5030728;28;20050;-75
2023/11/18 08:22:57;;;;;;;25.13;14.05;;;;;;;6.96;75.73;100495.38;5030695;28;20076;-73
2023/11/18 08:25:24;;;;;;;22.55;13.95;;;;;;;7.00;75.65;100499.59;5030760;28;20053;-74
2023/11/18 08:27:50;;;;;;;26.40;13.55;;;;;;;7.05;76.12;100502.94;5013556;28;20053;-76
2023/11/18 08:30:17;;;;;;;22.67;13.43;;;;;;;7.10;75.82;100506.25;5030863;28;20080;-74
2023/11/18 08:32:45;;;;;;;23.38;13.65;;;;;;;7.14;75.48;100502.66;5030663;28;20395;-76
2023/11/18 08:35:13;;;;;;;26.02;13.48;;;;;;;7.17;75.47;100507.81;5030876;28;20552;-73
2023/11/18 08:37:45;;;;;;;23.05;13.55;;;;;;;7.22;75.57;100493.72;5030703;28;20508;-75
2023/11/18 08:40:15;;;;;;;22.75;13.77;;;;;;;7.26;75.58;100471.75;5031033;28;20061;-74
2023/11/18 08:42:49;;;;;;;23.05;13.77;;;;;;;7.29;75.79;100467.28;5030884;28;20057;-73
2023/11/18 08:45:19;;;;;;;23.67;14.43;;;;;;;7.36;75.40;100478.41;5013537;28;20052;-75
2023/11/18 08:47:46;;;;;;;21.38;13.00;;;;;;;7.40;76.20;100463.47;5030890;28;20053;-75
2023/11/18 08:50:16;;;;;;;20.10;13.10;;;;;;;7.42;75.43;100465.13;5030666;28;20133;-74
2023/11/18 08:52:47;;;;;;;21.95;14.20;;;;;;;7.49;75.94;100475.41;5030624;28;20052;-73
2023/11/18 08:55:18;;;;;;;22.08;13.32;;;;;;;7.53;75.56;100477.00;5030748;28;20049;-74
2023/11/18 08:57:52;;;;;;;22.08;13.70;;;;;;;7.56;75.31;100466.44;5030606;28;20054;-74
2023/11/18 09:03:05;;;;;;;25.75;14.05;;;;;;;7.63;75.13;100449.59;5030618;28;20049;-74
2023/11/18 09:05:35;;;;;;;21.60;12.95;;;;;;;7.66;75.48;100446.88;5030395;28;20064;-75
2023/11/18 09:08:05;;;;;;;22.55;14.10;;;;;;;7.69;75.12;100440.66;5013079;28;20057;-75
2023/11/18 09:10:33;;;;;;;23.65;13.95;;;;;;;7.72;75.28;100443.19;5030439;28;20061;-75
2023/11/18 09:13:00;;;;;;;20.85;13.48;;;;;;;7.76;74.96;100443.94;5030211;28;20426;-75
2023/11/18 09:15:30;;;;;;;21.17;12.85;;;;;;;7.78;74.82;100448.22;5030500;28;20053;-76
2023/11/18 09:17:57;;;;;;;20.73;12.82;;;;;;;7.80;75.08;100438.56;5030355;28;20057;-75
2023/11/18 09:20:24;;;;;;;22.80;13.32;;;;;;;7.82;75.06;100422.78;5030425;28;20449;-75
2023/11/18 09:22:55;;;;;;;26.90;13.13;;;;;;;7.84;75.10;100426.19;5033742;28;20089;-74
2023/11/18 09:25:22;;;;;;;19.65;12.98;;;;;;;7.87;75.20;100417.34;5034172;28;20053;-74
2023/11/18 09:27:49;;;;;;;21.80;13.00;;;;;;;7.90;74.82;100406.78;5034229;28;20057;-77
2023/11/18 09:30:15;;;;;;;21.83;13.10;;;;;;;7.91;74.70;100404.09;5034114;28;20057;-74
2023/11/18 09:32:42;;;;;;;18.98;12.95;;;;;;;7.95;75.04;100404.84;5016231;28;20053;-74
2023/11/18 09:35:09;;;;;;;22.20;12.77;;;;;;;7.98;75.21;100393.38;5033944;28;20059;-75
2023/11/18 09:37:40;;;;;;;23.75;13.30;;;;;;;8.00;74.99;100392.41;5034288;28;20053;-74
2023/11/18 09:40:13;;;;;;;20.42;13.18;;;;;;;8.03;74.69;100389.69;5034096;28;20053;-74
2023/11/18 09:42:44;;;;;;;24.55;12.95;;;;;;;8.05;75.22;100387.88;5033833;28;20077;-76
2023/11/18 09:45:19;;;;;;;20.20;12.48;;;;;;;8.08;75.16;100385.13;5033828;28;20049;-74
2023/11/18 09:47:53;;;;;;;21.50;13.05;;;;;;;8.13;75.02;100371.88;5033595;28;20132;-74
2023/11/18 09:50:27;;;;;;;18.40;12.18;;;;;;;8.15;74.59;100377.06;5034020;28;20056;-76
2023/11/18 09:53:05;;;;;;;23.00;13.30;;;;;;;8.16;73.84;100376.13;5033854;28;20049;-75
2023/11/18 09:55:59;;;;;;;18.65;12.52;;;;;;;8.17;73.06;100376.09;5016325;28;20521;-74
2023/11/18 09:58:41;;;;;;;20.40;12.30;;;;;;;8.23;73.73;100379.38;5033697;28;20545;-76
2023/11/18 10:01:13;;;;;;;17.67;12.27;;;;;;;8.29;75.08;100369.53;5033723;28;20045;-74
2023/11/18 10:03:43;;;;;;;15.10;9.20;;;;;;;8.33;74.76;100358.00;5033517;28;20061;-75
2023/11/18 10:06:11;;;;;;;18.40;12.43;;;;;;;8.38;74.98;100360.47;5033494;28;20099;-75
2023/11/18 10:08:38;;;;;;;18.13;12.65;;;;;;;8.44;75.12;100362.84;5033163;28;20514;-72
2023/11/18 10:11:09;;;;;;;20.55;13.43;;;;;;;8.48;74.84;100360.94;5033552;28;20077;-75
2023/11/18 10:13:40;;;;;;;19.20;12.98;;;;;;;8.52;75.07;100352.03;5033073;28;20561;-77
2023/11/18 10:16:08;;;;;;;19.45;11.85;;;;;;;8.57;74.87;100359.78;5033226;28;20575;-73
2023/11/18 10:18:36;;;;;;;18.20;12.82;;;;;;;8.60;74.87;100355.25;5015629;28;20087;-74
2023/11/18 10:21:11;;;;;;;19.70;12.10;;;;;;;8.63;74.85;100354.28;5033322;28;20136;-73
2023/11/18 10:23:38;;;;;;;18.65;11.50;;;;;;;8.67;74.97;100350.59;5033092;28;20067;-75
2023/11/18 10:26:04;;;;;;;19.38;12.07;;;;;;;8.70;74.52;100354.88;5033178;28;20136;-74
2023/11/18 10:28:37;;;;;;;20.38;12.38;;;;;;;8.70;73.62;100355.75;5033242;28;20056;-74
2023/11/18 10:31:07;;;;;;;18.88;12.55;;;;;;;8.73;74.19;100354.78;5033106;28;20128;-73
2023/11/18 10:33:35;;;;;;;18.42;12.20;;;;;;;8.73;74.26;100346.91;5031976;28;20046;-74
2023/11/18 10:36:04;;;;;;;20.02;12.95;;;;;;;8.71;73.94;100341.69;5033182;28;20057;-75
2023/11/18 10:38:32;;;;;;;19.05;11.80;;;;;;;8.71;73.94;100336.44;5032750;28;20049;-74
2023/11/18 10:41:02;;;;;;;17.80;11.93;;;;;;;8.70;73.87;100337.38;5032863;28;20045;-74
2023/11/18 10:43:29;;;;;;;19.25;12.52;;;;;;;8.69;74.00;100330.44;5032558;28;20498;-74
2023/11/18 10:46:13;;;;;;;22.42;12.82;;;;;;;8.65;71.98;100331.47;5032639;28;20054;-74
2023/11/18 10:48:47;;;;;;;17.60;10.68;;;;;;;8.67;73.53;100316.50;5032805;28;20056;-74
2023/11/18 10:51:15;;;;;;;19.20;11.85;;;;;;;8.68;73.94;100309.47;5032879;28;20064;-76
2023/11/18 10:53:53;;;;;;;17.45;12.07;;;;;;;8.67;73.83;100313.88;5032511;28;20049;-75
2023/11/18 10:56:28;;;;;;;17.50;11.75;;;;;;;8.66;73.55;100316.56;5032599;28;20672;-73
2023/11/18 10:59:07;;;;;;;17.02;11.32;;;;;;;8.63;72.59;100307.03;5032468;28;20053;-74
2023/11/18 11:01:42;;;;;;;20.40;11.70;;;;;;;8.61;73.52;100314.13;5032529;28;20053;-78
2023/11/18 11:04:16;;;;;;;19.35;12.25;;;;;;;8.57;72.76;100302.88;5032472;28;20140;-77
2023/11/18 11:06:52;;;;;;;16.80;11.07;;;;;;;8.56;73.61;100309.06;5032343;28;20053;-79
2023/11/18 11:09:24;;;;;;;17.98;11.82;;;;;;;8.55;73.82;100309.97;5032529;28;20057;-79
2023/11/18 11:12:03;;;;;;;21.05;11.60;;;;;;;8.52;72.65;100304.81;5014739;28;20053;-77
2023/11/18 11:14:41;;;;;;;17.55;11.68;;;;;;;8.52;72.85;100299.56;5032586;28;20139;-77
2023/11/18 11:17:14;;;;;;;17.85;11.82;;;;;;;8.55;73.78;100288.13;5032149;28;20116;-76
2023/11/18 11:20:10;;;;;;;17.58;11.45;;;;;;;8.52;72.21;100282.97;5032151;28;20151;-78
2023/11/18 11:22:54;;;;;;;16.48;11.10;;;;;;;8.53;72.34;100279.47;5032048;28;20525;-76
2023/11/18 11:25:43;;;;;;;15.95;11.27;;;;;;;8.51;71.97;100273.38;5032037;28;20060;-77
2023/11/18 11:28:13;;;;;;;15.35;10.38;;;;;;;8.53;73.31;100254.09;5032252;28;20053;-77
2023/11/18 11:30:46;;;;;;;20.83;11.40;;;;;;;8.52;72.97;100262.81;5032009;28;20050;-79